Time;durP1;ratioP1;P1;durP2;ratioP2;P2;SDS_P1;SDS_P2;PMS_P1;PMS_P2;Temp;Humidity;BMP_temperature;BMP_pressure;BME280_temperature;BME280_humidity;BME280_pressure;Samples;Min_cycle;Max_cycle;Signal;HPM_P1;HPM_P2
2024/01/23 00:02:07;;;;;;;25.15;3.72;;;;;;;11.54;63.04;101734.00;4971133;28;20031;-50
2024/01/23 00:04:33;;;;;;;18.92;3.33;;;;;;;11.30;63.66;101746.47;4970691;28;20840;-48
2024/01/23 00:06:58;;;;;;;21.13;2.92;;;;;;;10.63;64.82;101744.75;4970357;28;20501;-46
2024/01/23 00:09:24;;;;;;;21.50;3.35;;;;;;;10.96;64.55;101749.97;4969017;28;20090;-48
2024/01/23 00:11:49;;;;;;;23.95;3.35;;;;;;;10.79;64.33;101772.13;4971107;28;20121;-45
2024/01/23 00:14:14;;;;;;;35.65;3.50;;;;;;;10.82;64.58;101782.63;4970906;28;20494;-47
2024/01/23 00:16:40;;;;;;;19.10;3.22;;;;;;;11.07;62.25;101781.56;4970814;28;20121;-46
2024/01/23 00:19:05;;;;;;;22.67;3.30;;;;;;;11.06;62.04;101783.28;4971074;28;20125;-45
2024/01/23 00:21:30;;;;;;;28.10;3.40;;;;;;;11.23;61.41;101765.44;4970729;28;20035;-48
2024/01/23 00:23:56;;;;;;;25.33;3.45;;;;;;;10.66;60.67;101762.22;4971152;28;20057;-45
2024/01/23 00:26:21;;;;;;;19.23;3.00;;;;;;;10.89;59.43;101763.69;4970688;28;20070;-44
2024/01/23 00:28:47;;;;;;;19.02;2.42;;;;;;;10.79;58.75;101772.13;4971288;28;20043;-49
2024/01/23 00:31:12;;;;;;;22.27;3.08;;;;;;;10.92;58.19;101768.97;4972320;28;20043;-45
2024/01/23 00:33:38;;;;;;;17.08;2.53;;;;;;;10.92;57.39;101776.81;4972210;28;20046;-45
2024/01/23 00:36:04;;;;;;;23.83;2.75;;;;;;;11.26;56.13;101782.06;4971350;28;20035;-46
2024/01/23 00:38:29;;;;;;;17.95;2.80;;;;;;;11.10;56.39;101787.72;4971207;28;20050;-48
2024/01/23 00:40:54;;;;;;;17.10;2.65;;;;;;;10.82;57.54;101795.69;4971078;28;20031;-47
2024/01/23 00:43:20;;;;;;;19.50;2.60;;;;;;;10.86;58.00;101795.78;4970656;28;20030;-46
2024/01/23 00:45:45;;;;;;;22.08;3.38;;;;;;;10.82;58.05;101795.69;4971470;28;20421;-45
2024/01/23 00:48:10;;;;;;;20.20;2.60;;;;;;;10.92;58.43;101810.72;4970941;28;20413;-48
2024/01/23 00:50:35;;;;;;;18.88;3.53;;;;;;;11.10;57.87;101803.38;4971731;28;20054;-50
2024/01/23 00:53:01;;;;;;;21.95;3.05;;;;;;;11.42;57.09;101798.09;4972562;28;20128;-44
2024/01/23 00:55:26;;;;;;;19.23;2.53;;;;;;;10.93;58.94;101802.94;4974849;28;20038;-43
2024/01/23 00:57:51;;;;;;;19.75;2.70;;;;;;;11.04;59.31;101797.16;4976286;28;20107;-47
2024/01/23 01:00:17;;;;;;;16.58;2.58;;;;;;;11.11;58.51;101799.03;4977011;28;20041;-46
2024/01/23 01:02:42;;;;;;;25.05;2.97;;;;;;;10.91;59.62;101822.03;4975746;28;20042;-46
2024/01/23 01:05:07;;;;;;;16.58;2.45;;;;;;;10.78;60.81;101828.63;4976996;28;20026;-45
2024/01/23 01:07:33;;;;;;;25.30;3.50;;;;;;;11.14;59.19;101822.63;4979810;28;20039;-46
2024/01/23 01:09:59;;;;;;;20.27;2.90;;;;;;;10.95;60.27;101818.66;4980062;28;20610;-48
2024/01/23 01:12:24;;;;;;;19.73;2.70;;;;;;;10.39;61.86;101837.91;4980187;28;20066;-46
2024/01/23 01:14:49;;;;;;;21.85;2.80;;;;;;;11.07;60.64;101842.47;4976091;28;20027;-46
2024/01/23 01:17:14;;;;;;;18.98;3.28;;;;;;;10.73;60.83;101858.03;4971457;28;20077;-50
2024/01/23 01:19:40;;;;;;;22.75;3.30;;;;;;;10.54;62.16;101857.50;4973936;28;20089;-45
2024/01/23 01:22:05;;;;;;;22.30;3.20;;;;;;;10.68;60.94;101865.72;4974101;28;20065;-47
2024/01/23 01:24:31;;;;;;;22.27;3.55;;;;;;;10.69;61.33;101857.06;4973490;28;20517;-44
2024/01/23 01:26:57;;;;;;;25.88;3.45;;;;;;;10.75;61.73;101875.47;4973175;28;20129;-45
2024/01/23 01:29:22;;;;;;;24.10;3.40;;;;;;;10.71;61.68;101878.84;4973218;28;20039;-49
2024/01/23 01:31:47;;;;;;;26.55;3.08;;;;;;;11.05;61.05;101866.72;4971789;28;20103;-48
2024/01/23 01:34:13;;;;;;;19.45;3.20;;;;;;;10.85;62.52;101874.03;4972064;28;20031;-47
2024/01/23 01:36:38;;;;;;;25.70;3.38;;;;;;;10.80;61.86;101881.72;4973923;28;20432;-48
2024/01/23 01:39:03;;;;;;;25.02;3.10;;;;;;;10.90;61.37;101857.66;4973988;28;20042;-47
2024/01/23 01:41:29;;;;;;;20.83;3.15;;;;;;;10.73;63.05;101887.63;4973185;28;20174;-46
2024/01/23 01:43:54;;;;;;;27.60;3.88;;;;;;;10.78;63.26;101890.34;4973625;28;20085;-47
2024/01/23 01:46:24;;;;;;;20.92;3.05;;;;;;;10.82;63.64;101890.47;4972783;28;20045;-45
2024/01/23 01:48:50;;;;;;;22.85;3.58;;;;;;;10.99;62.47;101896.16;4973393;28;20158;-45
2024/01/23 01:51:20;;;;;;;23.23;3.05;;;;;;;10.97;62.50;101892.63;4972837;28;20129;-46
2024/01/23 01:53:48;;;;;;;21.40;3.05;;;;;;;10.55;63.36;101890.53;4973542;28;20393;-44
2024/01/23 01:56:14;;;;;;;26.90;3.25;;;;;;;11.16;61.62;101912.31;4972593;28;20035;-45
2024/01/23 01:58:41;;;;;;;27.35;2.85;;;;;;;11.08;61.96;101913.81;4973957;28;20039;-47
2024/01/23 02:01:06;;;;;;;17.58;3.20;;;;;;;10.94;62.44;101921.25;4972319;28;20023;-44
2024/01/23 02:03:31;;;;;;;23.58;4.03;;;;;;;10.66;63.35;101918.69;4974170;28;20042;-46
2024/01/23 02:05:58;;;;;;;22.98;3.17;;;;;;;10.68;62.39;101924.81;4973641;28;20046;-47
2024/01/23 02:08:24;;;;;;;27.80;3.20;;;;;;;11.05;61.56;101945.91;4971523;28;20406;-46
2024/01/23 02:10:49;;;;;;;27.83;3.30;;;;;;;10.82;61.83;101955.69;4973167;28;20038;-46
2024/01/23 02:13:15;;;;;;;21.45;2.45;;;;;;;10.95;62.10;101941.28;4973758;28;20031;-45
2024/01/23 02:15:40;;;;;;;24.48;3.38;;;;;;;10.71;62.60;101951.00;4974120;28;20038;-46
2024/01/23 02:18:05;;;;;;;19.98;3.20;;;;;;;10.69;62.36;101956.16;4972614;28;20027;-46
2024/01/23 02:20:31;;;;;;;19.45;3.28;;;;;;;10.33;63.60;101960.25;4973536;28;20038;-44
2024/01/23 02:22:57;;;;;;;20.70;2.92;;;;;;;10.80;62.34;101954.75;4973947;28;20043;-46
2024/01/23 02:25:22;;;;;;;21.60;3.67;;;;;;;10.36;63.13;101957.75;4973700;28;20027;-45
2024/01/23 02:27:47;;;;;;;25.38;3.42;;;;;;;10.47;63.50;101965.06;4974644;28;20027;-44
2024/01/23 02:30:13;;;;;;;23.88;3.28;;;;;;;10.65;62.90;101980.38;4974084;28;20580;-44
2024/01/23 02:32:45;;;;;;;21.92;3.20;;;;;;;10.54;62.52;101980.06;4972109;28;20085;-44
2024/01/23 02:35:10;;;;;;;22.85;2.92;;;;;;;10.49;62.89;101983.38;4972577;28;20042;-45
2024/01/23 02:37:36;;;;;;;27.67;3.00;;;;;;;10.28;62.54;101993.97;4971621;28;20038;-47
2024/01/23 02:40:02;;;;;;;21.52;3.00;;;;;;;10.50;62.08;101993.81;4972183;28;20043;-44
2024/01/23 02:42:27;;;;;;;24.25;3.70;;;;;;;10.59;61.94;101988.03;4971967;28;20185;-45
2024/01/23 02:44:53;;;;;;;21.08;3.05;;;;;;;10.56;61.67;101972.25;4972350;28;20038;-46
2024/01/23 02:47:18;;;;;;;20.40;3.22;;;;;;;10.81;60.85;102008.69;4971490;28;20038;-46
2024/01/23 02:49:44;;;;;;;17.45;3.20;;;;;;;11.05;60.06;102018.97;4972420;28;20042;-45
2024/01/23 02:52:09;;;;;;;22.52;3.53;;;;;;;10.64;61.64;102014.22;4970987;28;20041;-46
2024/01/23 02:54:34;;;;;;;25.17;3.53;;;;;;;10.82;60.74;102027.84;4971363;28;20030;-45
2024/01/23 02:57:00;;;;;;;21.65;3.28;;;;;;;10.34;62.17;102029.78;4971496;28;20035;-45
2024/01/23 02:59:25;;;;;;;22.13;3.53;;;;;;;10.82;61.14;102044.38;4971300;28;20035;-46
2024/01/23 03:01:50;;;;;;;24.02;3.55;;;;;;;10.41;62.05;102040.47;4986702;28;20023;-46
2024/01/23 03:04:16;;;;;;;26.05;3.60;;;;;;;10.80;60.70;102034.72;4971404;28;20062;-46
2024/01/23 03:06:41;;;;;;;22.13;2.97;;;;;;;10.47;62.46;102051.09;4971282;28;20031;-47
2024/01/23 03:09:10;;;;;;;22.75;2.72;;;;;;;10.81;61.06;102039.09;4972816;28;20062;-46
2024/01/23 03:11:38;;;;;;;23.23;3.33;;;;;;;10.66;61.43;102056.91;4956347;28;20134;-47
2024/01/23 03:14:04;;;;;;;24.15;3.40;;;;;;;10.55;61.55;102073.06;4971428;28;20066;-47
2024/01/23 03:16:29;;;;;;;18.95;2.83;;;;;;;10.98;60.06;102059.66;4970586;28;20039;-50
2024/01/23 03:18:54;;;;;;;20.33;2.80;;;;;;;10.79;60.87;102080.81;4971629;28;20030;-46
2024/01/23 03:21:20;;;;;;;20.85;2.85;;;;;;;10.56;61.37;102072.25;4970689;28;20524;-46
2024/01/23 03:23:45;;;;;;;22.75;3.47;;;;;;;10.58;61.78;102078.41;4970271;28;20065;-45
2024/01/23 03:26:10;;;;;;;23.02;3.35;;;;;;;10.63;61.00;102078.53;4970290;28;20031;-48
2024/01/23 03:28:36;;;;;;;21.65;3.47;;;;;;;10.65;61.20;102078.59;4970352;28;20039;-46
2024/01/23 03:31:01;;;;;;;21.35;3.53;;;;;;;10.48;61.12;102076.34;4971416;28;20494;-45
2024/01/23 03:33:26;;;;;;;27.45;3.70;;;;;;;10.61;61.25;102092.38;4971297;28;20042;-49
2024/01/23 03:35:52;;;;;;;25.35;3.08;;;;;;;10.20;62.22;102085.78;4968567;28;20520;-46
2024/01/23 03:38:17;;;;;;;20.30;3.38;;;;;;;10.50;61.19;102086.78;4970631;28;20506;-44
2024/01/23 03:40:43;;;;;;;24.13;2.83;;;;;;;10.72;60.10;102101.44;4970090;28;20042;-46
2024/01/23 03:43:08;;;;;;;17.50;2.78;;;;;;;10.42;61.27;102109.13;4971453;28;20053;-45
2024/01/23 03:45:33;;;;;;;25.77;3.22;;;;;;;10.75;60.59;102117.16;4970572;28;20038;-44
2024/01/23 03:48:01;;;;;;;18.67;3.08;;;;;;;10.52;60.83;102122.53;4971006;28;20112;-49
2024/01/23 03:50:26;;;;;;;36.22;4.13;;;;;;;10.53;60.69;102141.66;4970701;28;20035;-45
2024/01/23 03:52:52;;;;;;;19.95;2.60;;;;;;;10.33;61.66;102146.19;4971198;28;20041;-46
2024/01/23 03:55:17;;;;;;;22.48;2.70;;;;;;;10.52;60.65;102163.34;4970753;28;20061;-48
2024/01/23 03:57:44;;;;;;;25.88;3.50;;;;;;;10.43;61.04;102158.69;4971163;28;20607;-44
2024/01/23 04:00:10;;;;;;;24.88;2.90;;;;;;;10.55;60.85;102159.13;4971835;28;20038;-47
2024/01/23 04:02:37;;;;;;;19.17;2.42;;;;;;;10.77;60.00;102165.97;4971583;28;20093;-44
2024/01/23 04:05:04;;;;;;;21.60;3.10;;;;;;;10.50;60.79;102160.69;4972157;28;20043;-47
2024/01/23 04:07:29;;;;;;;21.15;3.00;;;;;;;10.59;60.92;102167.94;4971099;28;20093;-45
2024/01/23 04:09:55;;;;;;;26.80;3.20;;;;;;;10.69;60.63;102182.16;4970297;28;20034;-46
2024/01/23 04:12:20;;;;;;;19.10;2.35;;;;;;;10.63;61.14;102171.53;4971614;28;20105;-49
2024/01/23 04:14:45;;;;;;;26.38;3.25;;;;;;;10.30;62.11;102181.72;4973087;28;20536;-44
2024/01/23 04:17:10;;;;;;;26.38;3.13;;;;;;;10.47;61.92;102189.28;4971855;28;20039;-45
2024/01/23 04:19:37;;;;;;;31.45;3.67;;;;;;;10.56;61.73;102193.91;4975766;28;20030;-46
2024/01/23 04:22:02;;;;;;;19.10;2.67;;;;;;;10.63;61.38;102205.44;4975773;28;20035;-45
2024/01/23 04:24:28;;;;;;;20.50;2.97;;;;;;;10.41;62.26;102219.47;4974179;28;20043;-46
2024/01/23 04:26:53;;;;;;;21.60;2.72;;;;;;;10.94;60.83;102224.78;4968995;28;20031;-48
2024/01/23 04:29:18;;;;;;;17.33;2.63;;;;;;;10.65;61.23;102222.94;4970803;28;20050;-48
2024/01/23 04:31:44;;;;;;;22.42;2.53;;;;;;;10.62;61.40;102233.22;4970712;28;20035;-46
2024/01/23 04:34:09;;;;;;;21.80;2.72;;;;;;;10.61;61.60;102225.38;4974124;28;20034;-46
2024/01/23 04:36:34;;;;;;;21.98;2.70;;;;;;;10.05;63.71;102232.91;4973621;28;20035;-45
2024/01/23 04:39:00;;;;;;;22.48;2.83;;;;;;;10.45;62.65;102227.44;4975017;28;20035;-45
2024/01/23 04:41:26;;;;;;;24.80;3.33;;;;;;;10.59;61.79;102246.19;4975487;28;20031;-46
2024/01/23 04:43:51;;;;;;;20.77;2.85;;;;;;;10.42;62.64;102245.59;4976802;28;20113;-48
2024/01/23 04:46:16;;;;;;;17.27;2.90;;;;;;;10.36;62.80;102254.91;4975180;28;20501;-45
2024/01/23 04:48:42;;;;;;;18.45;2.80;;;;;;;10.47;62.66;102254.47;4978013;28;20039;-48
2024/01/23 04:51:07;;;;;;;24.67;3.55;;;;;;;10.18;63.61;102249.03;4976482;28;20038;-46
2024/01/23 04:53:33;;;;;;;22.38;2.78;;;;;;;10.55;62.22;102260.81;4978506;28;20038;-45
2024/01/23 04:55:59;;;;;;;15.88;2.63;;;;;;;10.08;63.74;102268.59;4977991;28;20031;-46
2024/01/23 04:58:24;;;;;;;21.95;2.85;;;;;;;10.39;62.27;102279.38;4978222;28;20039;-48
2024/01/23 05:00:49;;;;;;;30.50;2.88;;;;;;;10.40;62.65;102268.09;4974330;28;20061;-46
2024/01/23 05:03:15;;;;;;;18.92;2.97;;;;;;;10.45;63.09;102276.97;4974995;28;20043;-47
2024/01/23 05:05:40;;;;;;;22.90;3.13;;;;;;;10.47;62.74;102274.44;4989044;28;20041;-45
2024/01/23 05:08:05;;;;;;;29.67;3.50;;;;;;;10.52;62.63;102272.88;4973873;28;20038;-46
2024/01/23 05:10:32;;;;;;;20.73;3.10;;;;;;;10.48;62.38;102277.09;4973687;28;20045;-45
2024/01/23 05:12:57;;;;;;;22.48;2.65;;;;;;;10.29;63.23;102266.84;4974273;28;20038;-45
2024/01/23 05:15:23;;;;;;;23.05;3.10;;;;;;;10.26;63.34;102268.44;4973790;28;20378;-48
2024/01/23 05:17:48;;;;;;;20.00;2.90;;;;;;;10.32;63.49;102279.97;4974071;28;20536;-46
2024/01/23 05:20:14;;;;;;;20.30;2.72;;;;;;;10.55;62.39;102289.50;4973789;28;20600;-46
2024/01/23 05:22:40;;;;;;;23.80;3.45;;;;;;;10.32;63.26;102289.50;4973786;28;20030;-45
2024/01/23 05:25:05;;;;;;;24.35;3.13;;;;;;;9.95;64.16;102277.66;4973746;28;20026;-47
2024/01/23 05:27:30;;;;;;;22.40;3.15;;;;;;;10.57;62.57;102306.09;4972857;28;20121;-45
2024/01/23 05:29:56;;;;;;;27.45;3.22;;;;;;;10.47;62.74;102303.13;4973700;28;20038;-45
2024/01/23 05:32:21;;;;;;;17.98;2.70;;;;;;;10.56;61.94;102309.53;4973121;28;20043;-49
2024/01/23 05:34:46;;;;;;;22.77;3.22;;;;;;;10.58;62.31;102315.72;4972468;28;20068;-45
2024/01/23 05:37:12;;;;;;;16.77;2.92;;;;;;;10.13;63.85;102314.84;4972804;28;20053;-48
2024/01/23 05:39:38;;;;;;;17.08;3.00;;;;;;;10.40;62.65;102315.03;4973249;28;20022;-46
2024/01/23 05:42:05;;;;;;;25.20;2.88;;;;;;;10.36;63.20;102315.75;4972616;28;20588;-44
2024/01/23 05:44:31;;;;;;;24.30;3.13;;;;;;;10.36;63.20;102327.91;4972975;28;20077;-46
2024/01/23 05:46:56;;;;;;;23.40;3.30;;;;;;;10.55;62.50;102331.22;4973244;28;20027;-49
2024/01/23 05:49:21;;;;;;;25.70;3.30;;;;;;;10.74;61.36;102338.00;4972587;28;20122;-48
2024/01/23 05:51:47;;;;;;;23.77;2.72;;;;;;;10.41;63.11;102340.28;4971929;28;20042;-45
2024/01/23 05:54:12;;;;;;;19.02;2.97;;;;;;;10.80;61.44;102345.16;4973460;28;20038;-47
2024/01/23 05:56:38;;;;;;;18.25;3.08;;;;;;;10.63;62.13;102341.06;4973633;28;20037;-45
2024/01/23 05:59:03;;;;;;;24.63;3.83;;;;;;;10.61;62.44;102337.53;4974087;28;20030;-45
2024/01/23 06:01:31;;;;;;;22.75;3.55;;;;;;;10.18;64.01;102341.13;4973157;28;20030;-50
2024/01/23 06:03:56;;;;;;;26.00;3.45;;;;;;;10.37;63.30;102345.34;4973843;28;20051;-47
2024/01/23 06:06:22;;;;;;;31.42;3.78;;;;;;;10.18;63.65;102352.41;4972172;28;20084;-47
2024/01/23 06:08:47;;;;;;;26.80;3.65;;;;;;;10.27;63.94;102357.09;4973132;28;20084;-47
2024/01/23 06:11:13;;;;;;;22.65;3.30;;;;;;;10.33;63.29;102344.31;4972422;28;20461;-45
2024/01/23 06:13:39;;;;;;;19.27;3.08;;;;;;;10.21;63.32;102350.78;4972852;28;20437;-45
2024/01/23 06:16:05;;;;;;;22.75;2.90;;;;;;;10.46;63.39;102358.69;4971326;28;20122;-47
2024/01/23 06:18:30;;;;;;;21.98;3.13;;;;;;;10.33;63.83;102372.97;4972265;28;20050;-46
2024/01/23 06:20:57;;;;;;;25.83;3.53;;;;;;;10.50;62.65;102371.91;4972451;28;20409;-45
2024/01/23 06:23:24;;;;;;;23.58;3.25;;;;;;;10.47;62.99;102379.63;4971947;28;20066;-44
2024/01/23 06:25:50;;;;;;;22.15;3.28;;;;;;;10.65;61.68;102384.63;4970871;28;20050;-46
2024/01/23 06:28:15;;;;;;;18.60;2.90;;;;;;;10.21;63.52;102395.97;4971807;28;20042;-46
2024/01/23 06:30:40;;;;;;;22.75;2.83;;;;;;;10.53;62.56;102397.22;4972253;28;20527;-45
2024/01/23 06:33:06;;;;;;;23.65;4.05;;;;;;;10.64;62.01;102402.81;4971955;28;20125;-44
2024/01/23 06:35:31;;;;;;;29.00;3.08;;;;;;;10.96;61.36;102403.19;4971653;28;20125;-44
2024/01/23 06:37:57;;;;;;;22.45;3.72;;;;;;;10.63;62.58;102409.75;4971976;28;20174;-43
2024/01/23 06:40:22;;;;;;;24.38;3.42;;;;;;;10.48;62.77;102414.41;4972261;28;20038;-55
2024/01/23 06:42:47;;;;;;;18.80;3.03;;;;;;;10.51;63.06;102410.19;4972573;28;20410;-45
2024/01/23 06:45:13;;;;;;;22.30;3.20;;;;;;;10.49;63.26;102416.19;4971933;28;20031;-51
2024/01/23 06:47:39;;;;;;;21.48;3.25;;;;;;;10.68;62.74;102418.63;4972209;28;20457;-46
2024/01/23 06:50:05;;;;;;;29.00;3.30;;;;;;;11.07;61.18;102419.22;4972285;28;20023;-45
2024/01/23 06:52:30;;;;;;;24.27;3.25;;;;;;;10.05;64.03;102417.03;4971531;28;20070;-44
2024/01/23 06:54:55;;;;;;;22.83;3.45;;;;;;;10.52;63.27;102416.28;4971958;28;20081;-44
2024/01/23 06:57:21;;;;;;;27.17;3.15;;;;;;;10.89;61.38;102416.84;4971885;28;20035;-48
2024/01/23 06:59:46;;;;;;;28.63;3.47;;;;;;;10.48;63.58;102436.16;4972689;28;20035;-46
2024/01/23 07:02:11;;;;;;;28.40;3.88;;;;;;;10.41;63.48;102423.72;4972706;28;20510;-46
2024/01/23 07:04:37;;;;;;;26.85;3.50;;;;;;;10.35;63.74;102420.88;4972872;28;20122;-44
2024/01/23 07:07:05;;;;;;;24.60;3.03;;;;;;;10.65;62.53;102420.25;4971538;28;20027;-45
2024/01/23 07:09:30;;;;;;;28.45;3.33;;;;;;;10.48;63.22;102420.50;4971896;28;20092;-44
2024/01/23 07:11:56;;;;;;;25.38;3.05;;;;;;;10.50;62.40;102424.03;4972044;28;20081;-45
2024/01/23 07:14:21;;;;;;;24.83;3.38;;;;;;;10.23;63.67;102415.19;4973998;28;20034;-45
2024/01/23 07:16:46;;;;;;;28.55;3.38;;;;;;;10.10;64.68;102418.09;4972264;28;20159;-47
2024/01/23 07:19:12;;;;;;;23.77;3.67;;;;;;;10.21;64.03;102421.13;4970597;28;20037;-48
2024/01/23 07:21:40;;;;;;;30.17;3.45;;;;;;;10.70;62.53;102423.91;4972417;28;20031;-44
2024/01/23 07:24:06;;;;;;;28.05;4.03;;;;;;;10.52;63.07;102434.53;4970157;28;20331;-45
2024/01/23 07:26:32;;;;;;;20.63;3.70;;;;;;;10.57;62.11;102423.44;4970429;28;20031;-46
2024/01/23 07:28:57;;;;;;;30.88;3.75;;;;;;;10.45;63.02;102429.91;4971386;28;20127;-45
2024/01/23 07:31:22;;;;;;;33.00;4.05;;;;;;;10.43;62.80;102422.03;4971587;28;20083;-46
2024/01/23 07:33:47;;;;;;;28.92;3.50;;;;;;;10.54;62.73;102414.63;4971503;28;20482;-46
2024/01/23 07:36:13;;;;;;;23.02;3.55;;;;;;;10.77;61.57;102423.31;4970390;28;20038;-45
2024/01/23 07:38:38;;;;;;;30.30;3.55;;;;;;;10.38;62.97;102434.00;4970308;28;20033;-48
2024/01/23 07:41:04;;;;;;;27.83;3.67;;;;;;;10.78;60.76;102422.50;4971194;28;20422;-45
2024/01/23 07:43:29;;;;;;;27.50;3.53;;;;;;;10.72;62.08;102436.19;4971294;28;20405;-49
2024/01/23 07:45:55;;;;;;;22.55;3.47;;;;;;;10.80;61.54;102439.06;4972004;28;20095;-49
2024/01/23 07:48:21;;;;;;;25.08;3.95;;;;;;;10.60;62.13;102446.16;4972482;28;20043;-47
2024/01/23 07:50:46;;;;;;;29.23;3.65;;;;;;;10.47;62.84;102455.22;4971347;28;20031;-46
2024/01/23 07:53:12;;;;;;;22.13;3.33;;;;;;;10.66;61.86;102455.94;4970369;28;20489;-47
2024/01/23 07:55:37;;;;;;;24.02;3.67;;;;;;;10.51;62.42;102464.94;4970147;28;20039;-46
2024/01/23 07:58:02;;;;;;;26.52;3.72;;;;;;;10.45;62.63;102477.75;4971522;28;20681;-45
2024/01/23 08:00:28;;;;;;;29.38;3.47;;;;;;;10.63;62.63;102485.38;4970695;28;20037;-44
2024/01/23 08:02:53;;;;;;;25.15;3.35;;;;;;;10.71;62.02;102496.13;4971469;28;20043;-46
2024/01/23 08:05:18;;;;;;;23.02;3.33;;;;;;;10.29;63.46;102501.44;4971661;28;20034;-46
2024/01/23 08:07:44;;;;;;;27.05;3.90;;;;;;;10.86;61.75;102494.97;4970564;28;20035;-47
2024/01/23 08:10:10;;;;;;;28.65;3.20;;;;;;;10.89;61.63;102513.38;4975801;28;20110;-44
2024/01/23 08:12:35;;;;;;;22.90;3.15;;;;;;;10.52;63.06;102513.66;4974940;28;20118;-46
2024/01/23 08:15:01;;;;;;;26.48;3.33;;;;;;;10.54;63.39;102522.44;4976035;28;20052;-44
2024/01/23 08:17:26;;;;;;;24.80;3.20;;;;;;;10.58;62.49;102526.94;4974517;28;20070;-45
2024/01/23 08:19:51;;;;;;;29.88;3.85;;;;;;;10.57;63.09;102535.59;4974215;28;20035;-45
2024/01/23 08:22:17;;;;;;;25.77;3.63;;;;;;;10.72;62.89;102537.94;4974226;28;20476;-44
2024/01/23 08:24:42;;;;;;;25.23;3.40;;;;;;;11.04;61.80;102541.75;4974771;28;20058;-50
2024/01/23 08:27:07;;;;;;;32.08;4.32;;;;;;;11.13;60.79;102547.34;4974271;28;20038;-46
2024/01/23 08:29:33;;;;;;;28.40;3.75;;;;;;;10.84;61.31;102553.16;4974410;28;20042;-46
2024/01/23 08:31:59;;;;;;;23.00;3.33;;;;;;;11.30;59.88;102559.28;4974469;28;20042;-47
2024/01/23 08:34:24;;;;;;;28.42;3.88;;;;;;;11.37;59.33;102558.69;4973837;28;20038;-51
2024/01/23 08:36:50;;;;;;;23.10;3.63;;;;;;;11.24;59.80;102564.28;4973777;28;20086;-45
2024/01/23 08:39:15;;;;;;;20.13;3.53;;;;;;;11.16;60.17;102565.72;4973749;28;20105;-46
2024/01/23 08:41:41;;;;;;;30.38;3.90;;;;;;;11.14;59.73;102569.09;4972571;28;20035;-48
2024/01/23 08:44:06;;;;;;;32.22;4.75;;;;;;;11.08;60.44;102574.09;4974901;28;20034;-45
2024/01/23 08:46:32;;;;;;;29.15;3.53;;;;;;;10.85;61.01;102573.22;4973597;28;20033;-47
2024/01/23 08:48:57;;;;;;;32.38;3.60;;;;;;;10.70;61.99;102573.50;4976708;28;20070;-46
2024/01/23 08:51:24;;;;;;;24.80;3.42;;;;;;;10.87;61.96;102563.72;4975860;28;20038;-45
2024/01/23 08:53:50;;;;;;;25.88;4.03;;;;;;;10.74;62.64;102562.34;4977296;28;20675;-45
2024/01/23 08:56:19;;;;;;;35.45;4.32;;;;;;;10.80;63.03;102559.06;4974834;28;20501;-49
2024/01/23 08:58:45;;;;;;;32.47;3.38;;;;;;;10.82;63.26;102555.72;4974469;28;20411;-45
2024/01/23 09:01:10;;;;;;;31.33;3.78;;;;;;;11.04;62.88;102564.38;4974217;28;20034;-47
2024/01/23 09:03:36;;;;;;;30.83;3.88;;;;;;;11.01;63.17;102564.25;4973735;28;20047;-43
2024/01/23 09:06:04;;;;;;;26.60;3.95;;;;;;;11.17;62.08;102551.81;4974379;28;20034;-48
2024/01/23 09:08:30;;;;;;;31.23;3.67;;;;;;;11.16;62.89;102557.88;4974147;28;20038;-46
2024/01/23 09:10:55;;;;;;;31.33;3.95;;;;;;;10.72;63.68;102561.41;4974509;28;20130;-45
2024/01/23 09:13:21;;;;;;;26.77;3.38;;;;;;;10.78;64.16;102559.03;4973741;28;20510;-44
2024/01/23 09:15:47;;;;;;;25.83;3.70;;;;;;;11.11;63.22;102568.97;4974416;28;20026;-45
2024/01/23 09:18:12;;;;;;;22.88;3.28;;;;;;;11.11;62.79;102564.66;4973284;28;20055;-46
2024/01/23 09:20:38;;;;;;;28.08;3.65;;;;;;;11.64;61.45;102571.88;4973891;28;20185;-45
2024/01/23 09:23:03;;;;;;;30.02;3.97;;;;;;;11.51;61.81;102563.53;4973911;28;20118;-45
2024/01/23 09:25:29;;;;;;;32.10;3.88;;;;;;;11.41;61.38;102562.28;4972700;28;20134;-49
2024/01/23 09:27:55;;;;;;;31.42;4.00;;;;;;;11.57;61.36;102569.88;4973222;28;20131;-44
2024/01/23 09:30:21;;;;;;;29.02;3.75;;;;;;;11.76;60.37;102561.91;4973132;28;20046;-43
2024/01/23 09:32:47;;;;;;;25.73;3.25;;;;;;;11.68;60.25;102559.81;4973673;28;20031;-48
2024/01/23 09:35:14;;;;;;;26.50;3.75;;;;;;;11.46;60.82;102562.47;4972963;28;20493;-46
2024/01/23 09:37:40;;;;;;;28.17;3.53;;;;;;;11.12;62.21;102558.59;4973223;28;20035;-48
2024/01/23 09:40:08;;;;;;;32.28;3.83;;;;;;;11.07;62.04;102554.94;4971895;28;20536;-49
2024/01/23 09:42:37;;;;;;;20.42;3.60;;;;;;;11.50;61.37;102549.59;4972905;28;20034;-46
2024/01/23 09:45:09;;;;;;;30.30;3.65;;;;;;;11.23;61.93;102544.22;4973524;28;20056;-49
2024/01/23 09:47:35;;;;;;;27.98;3.33;;;;;;;11.48;61.45;102537.28;4972341;28;20038;-45
2024/01/23 09:50:02;;;;;;;26.90;3.42;;;;;;;10.85;63.69;102549.72;4973274;28;20053;-44
2024/01/23 09:52:28;;;;;;;29.33;3.50;;;;;;;11.01;63.20;102556.41;4972866;28;20078;-47
2024/01/23 09:54:54;;;;;;;28.60;3.50;;;;;;;11.26;62.18;102566.97;4973425;28;20106;-45
2024/01/23 09:57:19;;;;;;;24.00;3.85;;;;;;;11.17;62.40;102567.50;4972684;28;20130;-47
2024/01/23 09:59:44;;;;;;;23.00;2.97;;;;;;;11.00;63.37;102565.97;4973694;28;20035;-47
2024/01/23 10:02:11;;;;;;;39.08;4.15;;;;;;;10.92;63.35;102565.66;4973230;28;20169;-46
2024/01/23 10:04:36;;;;;;;28.35;3.67;;;;;;;11.26;62.92;102567.84;4973068;28;20712;-47
2024/01/23 10:07:08;;;;;;;27.13;3.60;;;;;;;11.63;61.42;102566.59;4972548;28;20045;-45
2024/01/23 10:09:33;;;;;;;21.85;3.50;;;;;;;11.40;62.47;102561.41;4972706;28;20031;-47
2024/01/23 10:11:59;;;;;;;23.33;3.25;;;;;;;11.97;60.73;102566.97;4973222;28;20167;-52
2024/01/23 10:14:24;;;;;;;32.00;3.47;;;;;;;11.58;61.00;102571.66;4972650;28;20492;-44
2024/01/23 10:16:50;;;;;;;25.38;3.75;;;;;;;11.44;62.01;102575.47;4972260;28;20035;-45
2024/01/23 10:19:16;;;;;;;21.60;3.30;;;;;;;11.73;61.14;102564.38;4972533;28;20027;-47
2024/01/23 10:21:42;;;;;;;30.95;3.25;;;;;;;11.86;61.15;102565.72;4973488;28;20113;-48
2024/01/23 10:24:07;;;;;;;26.88;3.95;;;;;;;11.73;60.94;102571.28;4974273;28;20070;-49
2024/01/23 10:26:33;;;;;;;25.98;4.13;;;;;;;11.67;61.57;102573.69;4973364;28;20044;-45
2024/01/23 10:29:01;;;;;;;24.58;3.80;;;;;;;12.29;59.73;102562.84;4974137;28;20042;-45
2024/01/23 10:31:26;;;;;;;24.95;3.45;;;;;;;12.32;59.44;102562.06;4972624;28;20093;-49
2024/01/23 10:33:52;;;;;;;20.65;3.40;;;;;;;12.16;60.26;102565.88;4979075;28;20035;-46
2024/01/23 10:36:17;;;;;;;27.52;3.42;;;;;;;11.83;61.27;102559.50;4971986;28;20034;-46
2024/01/23 10:38:43;;;;;;;26.00;3.55;;;;;;;12.35;59.72;102549.97;4972969;28;20034;-45
2024/01/23 10:41:11;;;;;;;25.17;3.03;;;;;;;12.40;59.20;102547.47;4974164;28;20041;-46
2024/01/23 10:43:39;;;;;;;24.27;3.58;;;;;;;12.07;60.52;102547.28;4965135;28;20499;-45
2024/01/23 10:46:05;;;;;;;31.90;3.53;;;;;;;11.90;61.30;102537.94;4971917;28;20038;-48
2024/01/23 10:48:31;;;;;;;24.73;3.53;;;;;;;12.11;60.41;102541.31;4970367;28;20046;-49
2024/01/23 10:51:21;;;;;;;26.42;3.88;;;;;;;12.46;59.45;102527.66;4972536;28;20027;-45
2024/01/23 10:54:01;;;;;;;25.08;3.53;;;;;;;12.38;59.36;102528.25;4965895;28;20053;-48
2024/01/23 10:56:29;;;;;;;24.88;3.13;;;;;;;12.45;59.61;102518.00;4971207;28;20049;-46
2024/01/23 10:59:00;;;;;;;27.45;3.38;;;;;;;12.54;58.60;102512.19;4972192;28;20042;-46
2024/01/23 11:01:32;;;;;;;20.63;3.53;;;;;;;12.14;59.84;102510.00;4969056;28;20564;-46
2024/01/23 11:03:59;;;;;;;21.15;3.22;;;;;;;12.38;59.53;102497.72;4972097;28;20502;-47
2024/01/23 11:06:29;;;;;;;26.02;3.13;;;;;;;12.53;58.68;102506.06;4971066;28;20043;-45
2024/01/23 11:09:11;;;;;;;25.45;2.90;;;;;;;12.38;59.15;102512.56;4971515;28;20041;-46
2024/01/23 11:11:46;;;;;;;29.50;3.22;;;;;;;12.97;57.43;102489.09;4971401;28;20497;-44